Bol'Sie Uki, Russia
Current Conditions -  °F | °C
As of 3:30 AM on Friday 24 Oct 2014 (Local Time) from UNOO Reporting Station
Broken Clouds Broken Clouds  
Wind Chill: 28°   Ceiling: 3300
Heat Index: 34°   Visibility: 5mi
Dew Point: 30°   Wind: 7mph
Humidity: 87%   Direction: 240°WSW
Pressure: 29.62"   Gusts: NA
Location:  56.93°N, 72.67°E
Report Text: UNOO 232130Z 24003MPS 8000 BKN033CB 01/M01 Q1003 25290050 NOSIGRMK QFE744
Loading
Personal Weather Stations






























Interactive Weather Map
Tropical Storm Tracking
New forecast layout! Learn more

10-Day Weather Forecast

Advertisements
Track Severe Weather on mobile